Terminal Aerodrome Forecast
Issued by NWS Sioux Falls, SD

Home | Current Version | Previous Version | Text Only | Print | Product List | Glossary On
Versions: 1 2 3 4 5 6 7 8 9 10 11 12 13 14 15 16 17 18 19 20
000
FTUS43 KFSD 211136
TAFSUX
TAF
KSUX 211136Z 2112/2212 02013KT P6SM OVC070
     FM211230 03011KT 5SM -RASN OVC025
     FM211500 03010KT P6SM OVC035
     FM211700 02010KT P6SM OVC060
     FM220200 05006KT P6SM BKN100=

USA.gov is the U.S. government's official web portal to all federal, state and local government web resources and services.